metar:  

KBOI 241831Z 13008KT 10SM SCT026 OVC039 06/04 A3008 RMK AO2 T00610039

TTF METAR YSSY 241830Z 09009KT 9999 FEW018 BKN034 BKN050 24/20 Q1013 RMK RF00.0/001.0 HZ INTER 1930/2130 6000 -SHRA BKN010